sensor_id;sensor_type;location;lat;lon;timestamp;temperature;humidity
975;DHT22;6115;49.296;10.602;2022-08-19T00:00:23;21.00;67.40
975;DHT22;6115;49.296;10.602;2022-08-19T00:05:24;21.10;67.50
975;DHT22;6115;49.296;10.602;2022-08-19T00:10:24;21.00;68.00
975;DHT22;6115;49.296;10.602;2022-08-19T00:15:25;21.00;68.00
975;DHT22;6115;49.296;10.602;2022-08-19T00:20:26;20.90;68.10
975;DHT22;6115;49.296;10.602;2022-08-19T00:25:26;20.90;68.40
975;DHT22;6115;49.296;10.602;2022-08-19T00:30:27;20.70;68.90
975;DHT22;6115;49.296;10.602;2022-08-19T00:35:28;20.70;69.30
975;DHT22;6115;49.296;10.602;2022-08-19T00:40:29;20.60;69.80
975;DHT22;6115;49.296;10.602;2022-08-19T00:45:30;20.60;69.20
975;DHT22;6115;49.296;10.602;2022-08-19T00:50:33;20.50;69.30
975;DHT22;6115;49.296;10.602;2022-08-19T00:55:34;20.50;68.80
975;DHT22;6115;49.296;10.602;2022-08-19T01:00:36;20.50;69.00
975;DHT22;6115;49.296;10.602;2022-08-19T01:05:39;20.50;69.10
975;DHT22;6115;49.296;10.602;2022-08-19T01:10:50;20.40;69.40
975;DHT22;6115;49.296;10.602;2022-08-19T01:15:59;20.40;69.30
975;DHT22;6115;49.296;10.602;2022-08-19T01:21:05;20.30;69.40
975;DHT22;6115;49.296;10.602;2022-08-19T01:26:20;20.30;69.40
975;DHT22;6115;49.296;10.602;2022-08-19T01:31:24;20.40;69.30
975;DHT22;6115;49.296;10.602;2022-08-19T01:41:33;20.50;68.50
975;DHT22;6115;49.296;10.602;2022-08-19T01:46:34;20.40;68.40
975;DHT22;6115;49.296;10.602;2022-08-19T01:51:36;20.50;68.00
975;DHT22;6115;49.296;10.602;2022-08-19T01:56:37;20.60;67.80
975;DHT22;6115;49.296;10.602;2022-08-19T02:01:38;20.60;67.70
975;DHT22;6115;49.296;10.602;2022-08-19T02:06:39;20.50;67.20
975;DHT22;6115;49.296;10.602;2022-08-19T02:11:41;20.40;67.40
975;DHT22;6115;49.296;10.602;2022-08-19T02:16:42;20.40;67.90
975;DHT22;6115;49.296;10.602;2022-08-19T02:21:42;20.40;67.90
975;DHT22;6115;49.296;10.602;2022-08-19T02:26:44;20.50;67.30
975;DHT22;6115;49.296;10.602;2022-08-19T02:31:44;20.40;67.30
975;DHT22;6115;49.296;10.602;2022-08-19T02:36:45;20.40;67.20
975;DHT22;6115;49.296;10.602;2022-08-19T02:41:46;20.40;67.30
975;DHT22;6115;49.296;10.602;2022-08-19T02:46:48;20.40;67.10
975;DHT22;6115;49.296;10.602;2022-08-19T02:51:50;20.40;67.10
975;DHT22;6115;49.296;10.602;2022-08-19T02:56:50;20.40;66.90
975;DHT22;6115;49.296;10.602;2022-08-19T03:01:51;20.40;66.70
975;DHT22;6115;49.296;10.602;2022-08-19T03:06:52;20.40;66.90
975;DHT22;6115;49.296;10.602;2022-08-19T03:11:54;20.40;66.80
975;DHT22;6115;49.296;10.602;2022-08-19T03:16:54;20.40;66.90
975;DHT22;6115;49.296;10.602;2022-08-19T03:21:55;20.40;67.00
975;DHT22;6115;49.296;10.602;2022-08-19T03:26:56;20.50;66.70
975;DHT22;6115;49.296;10.602;2022-08-19T03:31:59;20.40;66.50
975;DHT22;6115;49.296;10.602;2022-08-19T03:37:05;20.40;66.60
975;DHT22;6115;49.296;10.602;2022-08-19T03:42:06;20.30;67.00
975;DHT22;6115;49.296;10.602;2022-08-19T03:47:07;20.30;67.10
975;DHT22;6115;49.296;10.602;2022-08-19T03:52:07;20.30;67.10
975;DHT22;6115;49.296;10.602;2022-08-19T03:57:08;20.30;67.10
975;DHT22;6115;49.296;10.602;2022-08-19T04:02:11;20.20;67.20
975;DHT22;6115;49.296;10.602;2022-08-19T04:07:13;20.20;67.50
975;DHT22;6115;49.296;10.602;2022-08-19T04:12:18;20.20;67.40
975;DHT22;6115;49.296;10.602;2022-08-19T04:17:20;20.10;67.70
975;DHT22;6115;49.296;10.602;2022-08-19T04:22:21;20.10;67.80
975;DHT22;6115;49.296;10.602;2022-08-19T04:27:25;20.00;68.20
975;DHT22;6115;49.296;10.602;2022-08-19T04:32:25;20.10;68.90
975;DHT22;6115;49.296;10.602;2022-08-19T04:37:26;20.30;68.40
975;DHT22;6115;49.296;10.602;2022-08-19T04:42:27;20.30;68.00
975;DHT22;6115;49.296;10.602;2022-08-19T04:47:42;20.30;67.40
975;DHT22;6115;49.296;10.602;2022-08-19T04:52:42;20.10;68.40
975;DHT22;6115;49.296;10.602;2022-08-19T04:57:43;20.10;68.80
975;DHT22;6115;49.296;10.602;2022-08-19T05:02:43;20.30;68.30
975;DHT22;6115;49.296;10.602;2022-08-19T05:07:44;20.30;68.00
975;DHT22;6115;49.296;10.602;2022-08-19T05:12:45;20.40;67.80
975;DHT22;6115;49.296;10.602;2022-08-19T05:17:45;20.40;67.70
975;DHT22;6115;49.296;10.602;2022-08-19T05:23:06;20.50;67.20
975;DHT22;6115;49.296;10.602;2022-08-19T05:28:07;20.60;66.90
975;DHT22;6115;49.296;10.602;2022-08-19T05:33:08;20.60;66.70
975;DHT22;6115;49.296;10.602;2022-08-19T05:38:10;20.70;66.70
975;DHT22;6115;49.296;10.602;2022-08-19T05:43:11;20.70;66.40
975;DHT22;6115;49.296;10.602;2022-08-19T05:48:13;20.70;66.40
975;DHT22;6115;49.296;10.602;2022-08-19T05:53:14;20.70;65.90
975;DHT22;6115;49.296;10.602;2022-08-19T05:58:16;20.70;66.50
975;DHT22;6115;49.296;10.602;2022-08-19T06:03:17;20.60;66.70
975;DHT22;6115;49.296;10.602;2022-08-19T06:08:18;20.60;66.70
975;DHT22;6115;49.296;10.602;2022-08-19T06:13:20;20.60;66.90
975;DHT22;6115;49.296;10.602;2022-08-19T06:18:21;20.60;67.10
975;DHT22;6115;49.296;10.602;2022-08-19T06:23:22;20.60;67.00
975;DHT22;6115;49.296;10.602;2022-08-19T06:28:22;20.80;67.00
975;DHT22;6115;49.296;10.602;2022-08-19T06:33:24;20.80;66.70
975;DHT22;6115;49.296;10.602;2022-08-19T06:38:24;20.90;66.50
975;DHT22;6115;49.296;10.602;2022-08-19T06:43:25;21.10;65.20
975;DHT22;6115;49.296;10.602;2022-08-19T06:48:25;21.10;65.20
975;DHT22;6115;49.296;10.602;2022-08-19T06:53:26;21.20;65.30
975;DHT22;6115;49.296;10.602;2022-08-19T06:58:29;21.20;64.80
975;DHT22;6115;49.296;10.602;2022-08-19T07:03:35;21.30;64.10
975;DHT22;6115;49.296;10.602;2022-08-19T07:08:37;21.40;64.00
975;DHT22;6115;49.296;10.602;2022-08-19T07:13:39;21.50;63.60
975;DHT22;6115;49.296;10.602;2022-08-19T07:18:40;21.60;63.50
975;DHT22;6115;49.296;10.602;2022-08-19T07:23:41;21.60;63.20
975;DHT22;6115;49.296;10.602;2022-08-19T07:28:43;21.50;63.30
975;DHT22;6115;49.296;10.602;2022-08-19T07:33:46;21.50;63.80
975;DHT22;6115;49.296;10.602;2022-08-19T07:38:49;21.60;63.20
975;DHT22;6115;49.296;10.602;2022-08-19T07:43:50;21.70;63.70
975;DHT22;6115;49.296;10.602;2022-08-19T07:48:51;21.50;63.40
975;DHT22;6115;49.296;10.602;2022-08-19T07:53:52;21.50;64.00
975;DHT22;6115;49.296;10.602;2022-08-19T07:58:53;21.60;63.80
975;DHT22;6115;49.296;10.602;2022-08-19T08:03:55;21.70;63.50
975;DHT22;6115;49.296;10.602;2022-08-19T08:09:18;21.70;63.40
975;DHT22;6115;49.296;10.602;2022-08-19T08:14:26;21.60;63.20
975;DHT22;6115;49.296;10.602;2022-08-19T08:19:28;21.40;65.10
975;DHT22;6115;49.296;10.602;2022-08-19T08:24:32;20.90;68.10
975;DHT22;6115;49.296;10.602;2022-08-19T08:29:33;20.70;69.80
975;DHT22;6115;49.296;10.602;2022-08-19T08:34:34;20.50;70.50
975;DHT22;6115;49.296;10.602;2022-08-19T08:39:34;20.40;71.00
975;DHT22;6115;49.296;10.602;2022-08-19T08:44:53;20.50;71.00
975;DHT22;6115;49.296;10.602;2022-08-19T08:50:03;20.50;69.60
975;DHT22;6115;49.296;10.602;2022-08-19T08:55:08;20.70;69.80
975;DHT22;6115;49.296;10.602;2022-08-19T09:00:17;20.80;68.80
975;DHT22;6115;49.296;10.602;2022-08-19T09:05:19;21.00;67.90
975;DHT22;6115;49.296;10.602;2022-08-19T09:10:38;21.20;67.70
975;DHT22;6115;49.296;10.602;2022-08-19T09:15:50;21.30;65.80
975;DHT22;6115;49.296;10.602;2022-08-19T09:20:51;21.40;65.50
975;DHT22;6115;49.296;10.602;2022-08-19T09:25:53;21.40;65.50
975;DHT22;6115;49.296;10.602;2022-08-19T09:30:53;21.40;65.50
975;DHT22;6115;49.296;10.602;2022-08-19T09:36:08;21.50;64.60
975;DHT22;6115;49.296;10.602;2022-08-19T09:41:12;21.60;64.40
975;DHT22;6115;49.296;10.602;2022-08-19T09:46:14;21.70;65.10
975;DHT22;6115;49.296;10.602;2022-08-19T09:51:19;21.70;63.40
975;DHT22;6115;49.296;10.602;2022-08-19T09:56:21;21.90;63.20
975;DHT22;6115;49.296;10.602;2022-08-19T10:01:24;22.10;62.40
975;DHT22;6115;49.296;10.602;2022-08-19T10:06:27;22.40;61.90
975;DHT22;6115;49.296;10.602;2022-08-19T10:11:30;22.40;61.00
975;DHT22;6115;49.296;10.602;2022-08-19T10:16:32;22.30;61.20
975;DHT22;6115;49.296;10.602;2022-08-19T10:21:33;22.30;61.20
975;DHT22;6115;49.296;10.602;2022-08-19T10:26:37;22.30;61.20
975;DHT22;6115;49.296;10.602;2022-08-19T10:31:38;22.20;61.60
975;DHT22;6115;49.296;10.602;2022-08-19T10:36:38;22.30;61.70
975;DHT22;6115;49.296;10.602;2022-08-19T10:41:39;22.50;61.40
975;DHT22;6115;49.296;10.602;2022-08-19T10:46:42;22.40;61.30
975;DHT22;6115;49.296;10.602;2022-08-19T10:51:47;22.40;61.30
975;DHT22;6115;49.296;10.602;2022-08-19T10:57:06;22.20;61.10
975;DHT22;6115;49.296;10.602;2022-08-19T11:02:10;22.30;62.00
975;DHT22;6115;49.296;10.602;2022-08-19T11:07:10;22.40;61.30
975;DHT22;6115;49.296;10.602;2022-08-19T11:12:15;22.60;61.50
975;DHT22;6115;49.296;10.602;2022-08-19T11:17:16;22.60;61.50
975;DHT22;6115;49.296;10.602;2022-08-19T11:22:16;22.40;61.30
975;DHT22;6115;49.296;10.602;2022-08-19T11:27:17;22.40;61.40
975;DHT22;6115;49.296;10.602;2022-08-19T11:32:18;22.40;61.30
975;DHT22;6115;49.296;10.602;2022-08-19T11:37:18;22.50;61.40
975;DHT22;6115;49.296;10.602;2022-08-19T11:42:20;22.50;61.40
975;DHT22;6115;49.296;10.602;2022-08-19T11:47:39;22.40;61.30
975;DHT22;6115;49.296;10.602;2022-08-19T11:52:39;22.30;62.10
975;DHT22;6115;49.296;10.602;2022-08-19T11:57:41;22.30;62.80
975;DHT22;6115;49.296;10.602;2022-08-19T12:02:43;22.10;64.50
975;DHT22;6115;49.296;10.602;2022-08-19T12:07:43;21.80;67.40
975;DHT22;6115;49.296;10.602;2022-08-19T12:12:44;21.40;70.50
975;DHT22;6115;49.296;10.602;2022-08-19T12:17:46;21.10;70.80
975;DHT22;6115;49.296;10.602;2022-08-19T12:22:47;21.00;71.80
975;DHT22;6115;49.296;10.602;2022-08-19T12:27:48;21.00;72.20
975;DHT22;6115;49.296;10.602;2022-08-19T12:32:50;21.10;73.00
975;DHT22;6115;49.296;10.602;2022-08-19T12:37:51;20.80;75.10
975;DHT22;6115;49.296;10.602;2022-08-19T12:42:52;20.30;77.70
975;DHT22;6115;49.296;10.602;2022-08-19T12:47:53;20.10;79.20
975;DHT22;6115;49.296;10.602;2022-08-19T12:52:54;20.00;79.70
975;DHT22;6115;49.296;10.602;2022-08-19T12:57:54;20.00;79.90
975;DHT22;6115;49.296;10.602;2022-08-19T13:02:55;19.90;80.10
975;DHT22;6115;49.296;10.602;2022-08-19T13:07:58;19.80;80.70
975;DHT22;6115;49.296;10.602;2022-08-19T13:13:00;19.80;81.50
975;DHT22;6115;49.296;10.602;2022-08-19T13:18:02;19.70;81.70
975;DHT22;6115;49.296;10.602;2022-08-19T13:23:03;19.70;82.30
975;DHT22;6115;49.296;10.602;2022-08-19T13:28:04;19.60;83.10
975;DHT22;6115;49.296;10.602;2022-08-19T13:33:08;19.50;83.20
975;DHT22;6115;49.296;10.602;2022-08-19T13:38:13;19.40;83.20
975;DHT22;6115;49.296;10.602;2022-08-19T13:43:13;19.40;83.40
975;DHT22;6115;49.296;10.602;2022-08-19T13:48:15;19.40;82.90
975;DHT22;6115;49.296;10.602;2022-08-19T13:53:17;19.40;82.70
975;DHT22;6115;49.296;10.602;2022-08-19T13:58:18;19.30;82.40
975;DHT22;6115;49.296;10.602;2022-08-19T14:03:18;19.40;82.60
975;DHT22;6115;49.296;10.602;2022-08-19T14:08:19;19.30;82.90
975;DHT22;6115;49.296;10.602;2022-08-19T14:13:22;19.20;82.30
975;DHT22;6115;49.296;10.602;2022-08-19T14:18:23;19.10;82.20
975;DHT22;6115;49.296;10.602;2022-08-19T14:23:25;19.00;82.50
975;DHT22;6115;49.296;10.602;2022-08-19T14:28:25;18.90;82.90
975;DHT22;6115;49.296;10.602;2022-08-19T14:33:26;18.80;83.20
975;DHT22;6115;49.296;10.602;2022-08-19T14:38:27;18.80;83.70
975;DHT22;6115;49.296;10.602;2022-08-19T14:43:31;18.80;84.10
975;DHT22;6115;49.296;10.602;2022-08-19T14:48:32;18.80;84.10
975;DHT22;6115;49.296;10.602;2022-08-19T14:53:33;18.80;84.30
975;DHT22;6115;49.296;10.602;2022-08-19T14:58:34;18.80;84.40
975;DHT22;6115;49.296;10.602;2022-08-19T15:03:34;18.80;84.40
975;DHT22;6115;49.296;10.602;2022-08-19T15:08:37;18.70;84.50
975;DHT22;6115;49.296;10.602;2022-08-19T15:13:39;18.80;84.80
975;DHT22;6115;49.296;10.602;2022-08-19T15:18:40;18.80;85.30
975;DHT22;6115;49.296;10.602;2022-08-19T15:23:47;18.80;85.80
975;DHT22;6115;49.296;10.602;2022-08-19T15:28:48;18.70;86.00
975;DHT22;6115;49.296;10.602;2022-08-19T15:33:49;18.80;86.40
975;DHT22;6115;49.296;10.602;2022-08-19T15:38:50;18.70;86.10
975;DHT22;6115;49.296;10.602;2022-08-19T15:44:06;18.70;86.00
975;DHT22;6115;49.296;10.602;2022-08-19T15:49:11;18.70;86.20
975;DHT22;6115;49.296;10.602;2022-08-19T15:54:15;18.60;86.10
975;DHT22;6115;49.296;10.602;2022-08-19T15:59:16;18.50;86.50
975;DHT22;6115;49.296;10.602;2022-08-19T16:04:35;18.50;86.90
975;DHT22;6115;49.296;10.602;2022-08-19T16:09:54;18.50;87.30
975;DHT22;6115;49.296;10.602;2022-08-19T16:14:56;18.50;87.30
975;DHT22;6115;49.296;10.602;2022-08-19T16:19:56;18.50;87.30
975;DHT22;6115;49.296;10.602;2022-08-19T16:24:57;18.40;87.10
975;DHT22;6115;49.296;10.602;2022-08-19T16:29:58;18.40;87.20
975;DHT22;6115;49.296;10.602;2022-08-19T16:35:03;18.40;87.20
975;DHT22;6115;49.296;10.602;2022-08-19T16:40:04;18.40;87.10
975;DHT22;6115;49.296;10.602;2022-08-19T16:45:08;18.30;87.00
975;DHT22;6115;49.296;10.602;2022-08-19T16:50:09;18.30;87.00
975;DHT22;6115;49.296;10.602;2022-08-19T16:55:09;18.40;87.10
975;DHT22;6115;49.296;10.602;2022-08-19T17:00:10;18.40;87.10
975;DHT22;6115;49.296;10.602;2022-08-19T17:05:12;18.50;87.20
975;DHT22;6115;49.296;10.602;2022-08-19T17:10:14;18.50;87.00
975;DHT22;6115;49.296;10.602;2022-08-19T17:15:14;18.60;87.30
975;DHT22;6115;49.296;10.602;2022-08-19T17:20:15;18.60;86.80
975;DHT22;6115;49.296;10.602;2022-08-19T17:25:16;18.60;86.70
975;DHT22;6115;49.296;10.602;2022-08-19T17:30:18;18.60;86.80
975;DHT22;6115;49.296;10.602;2022-08-19T17:35:18;18.50;86.80
975;DHT22;6115;49.296;10.602;2022-08-19T17:40:20;18.60;87.00
975;DHT22;6115;49.296;10.602;2022-08-19T17:45:20;18.60;86.80
975;DHT22;6115;49.296;10.602;2022-08-19T17:50:21;18.70;86.90
975;DHT22;6115;49.296;10.602;2022-08-19T17:55:23;18.60;87.10
975;DHT22;6115;49.296;10.602;2022-08-19T18:00:24;18.50;87.20
975;DHT22;6115;49.296;10.602;2022-08-19T18:05:26;18.40;87.10
975;DHT22;6115;49.296;10.602;2022-08-19T18:10:31;18.30;87.80
975;DHT22;6115;49.296;10.602;2022-08-19T18:15:31;18.20;87.00
975;DHT22;6115;49.296;10.602;2022-08-19T18:20:32;18.30;87.50
975;DHT22;6115;49.296;10.602;2022-08-19T18:25:33;18.20;87.70
975;DHT22;6115;49.296;10.602;2022-08-19T18:30:33;18.20;87.80
975;DHT22;6115;49.296;10.602;2022-08-19T18:35:34;18.20;87.80
975;DHT22;6115;49.296;10.602;2022-08-19T18:40:38;18.20;87.70
975;DHT22;6115;49.296;10.602;2022-08-19T18:45:57;18.20;87.80
975;DHT22;6115;49.296;10.602;2022-08-19T18:51:17;18.10;87.50
975;DHT22;6115;49.296;10.602;2022-08-19T18:56:18;18.10;87.30
975;DHT22;6115;49.296;10.602;2022-08-19T19:01:46;18.10;87.30
975;DHT22;6115;49.296;10.602;2022-08-19T19:06:49;18.10;87.50
975;DHT22;6115;49.296;10.602;2022-08-19T19:11:56;18.10;87.10
975;DHT22;6115;49.296;10.602;2022-08-19T19:17:03;18.10;87.30
975;DHT22;6115;49.296;10.602;2022-08-19T19:22:03;18.10;87.30
975;DHT22;6115;49.296;10.602;2022-08-19T19:27:05;18.10;86.90
975;DHT22;6115;49.296;10.602;2022-08-19T19:32:14;18.10;86.80
975;DHT22;6115;49.296;10.602;2022-08-19T19:37:16;18.10;86.90
975;DHT22;6115;49.296;10.602;2022-08-19T19:42:19;18.00;86.80
975;DHT22;6115;49.296;10.602;2022-08-19T19:47:20;18.10;87.00
975;DHT22;6115;49.296;10.602;2022-08-19T19:52:24;18.20;87.00
975;DHT22;6115;49.296;10.602;2022-08-19T19:57:26;18.10;86.90
975;DHT22;6115;49.296;10.602;2022-08-19T20:02:26;18.10;86.90
975;DHT22;6115;49.296;10.602;2022-08-19T20:07:27;18.00;86.80
975;DHT22;6115;49.296;10.602;2022-08-19T20:12:46;18.00;86.80
975;DHT22;6115;49.296;10.602;2022-08-19T20:17:47;17.90;86.70
975;DHT22;6115;49.296;10.602;2022-08-19T20:22:47;17.90;86.80
975;DHT22;6115;49.296;10.602;2022-08-19T20:27:49;17.90;87.10
975;DHT22;6115;49.296;10.602;2022-08-19T20:32:49;17.90;87.20
975;DHT22;6115;49.296;10.602;2022-08-19T20:37:50;17.90;87.10
975;DHT22;6115;49.296;10.602;2022-08-19T20:42:54;17.90;87.20
975;DHT22;6115;49.296;10.602;2022-08-19T20:47:54;17.80;87.00
975;DHT22;6115;49.296;10.602;2022-08-19T20:52:55;17.80;87.30
975;DHT22;6115;49.296;10.602;2022-08-19T20:57:55;17.70;87.20
975;DHT22;6115;49.296;10.602;2022-08-19T21:02:57;17.70;87.50
975;DHT22;6115;49.296;10.602;2022-08-19T21:07:58;17.70;87.50
975;DHT22;6115;49.296;10.602;2022-08-19T21:12:59;17.90;87.60
975;DHT22;6115;49.296;10.602;2022-08-19T21:17:59;17.80;87.40
975;DHT22;6115;49.296;10.602;2022-08-19T21:23:08;17.80;87.40
975;DHT22;6115;49.296;10.602;2022-08-19T21:28:10;17.80;87.20
975;DHT22;6115;49.296;10.602;2022-08-19T21:33:10;17.90;87.30
975;DHT22;6115;49.296;10.602;2022-08-19T21:38:11;18.00;86.70
975;DHT22;6115;49.296;10.602;2022-08-19T21:43:12;17.90;86.70
975;DHT22;6115;49.296;10.602;2022-08-19T21:48:13;18.00;86.80
975;DHT22;6115;49.296;10.602;2022-08-19T21:53:17;18.00;87.00
975;DHT22;6115;49.296;10.602;2022-08-19T21:58:18;17.90;86.90
975;DHT22;6115;49.296;10.602;2022-08-19T22:03:18;17.90;87.20
975;DHT22;6115;49.296;10.602;2022-08-19T22:08:20;17.90;86.90
975;DHT22;6115;49.296;10.602;2022-08-19T22:13:21;17.90;87.10
975;DHT22;6115;49.296;10.602;2022-08-19T22:18:21;17.90;87.10
975;DHT22;6115;49.296;10.602;2022-08-19T22:23:22;18.00;86.90
975;DHT22;6115;49.296;10.602;2022-08-19T22:28:23;18.00;86.80
975;DHT22;6115;49.296;10.602;2022-08-19T22:33:24;18.00;86.80
975;DHT22;6115;49.296;10.602;2022-08-19T22:38:26;17.90;87.00
975;DHT22;6115;49.296;10.602;2022-08-19T22:43:29;17.90;87.50
975;DHT22;6115;49.296;10.602;2022-08-19T22:48:31;17.90;87.90
975;DHT22;6115;49.296;10.602;2022-08-19T22:53:34;17.80;87.90
975;DHT22;6115;49.296;10.602;2022-08-19T22:58:36;17.80;88.00
975;DHT22;6115;49.296;10.602;2022-08-19T23:03:37;17.70;88.00
975;DHT22;6115;49.296;10.602;2022-08-19T23:08:42;17.80;88.30
975;DHT22;6115;49.296;10.602;2022-08-19T23:13:42;17.80;88.20
975;DHT22;6115;49.296;10.602;2022-08-19T23:18:43;17.80;88.90
975;DHT22;6115;49.296;10.602;2022-08-19T23:23:44;17.80;88.90
975;DHT22;6115;49.296;10.602;2022-08-19T23:28:45;17.80;88.00
975;DHT22;6115;49.296;10.602;2022-08-19T23:34:04;17.80;88.20
975;DHT22;6115;49.296;10.602;2022-08-19T23:39:05;17.80;88.00
975;DHT22;6115;49.296;10.602;2022-08-19T23:44:05;17.80;88.10
975;DHT22;6115;49.296;10.602;2022-08-19T23:49:06;17.80;88.00
975;DHT22;6115;49.296;10.602;2022-08-19T23:54:06;17.70;87.90
975;DHT22;6115;49.296;10.602;2022-08-19T23:59:07;17.70;87.90
